sensor_id;sensor_type;location;lat;lon;timestamp;noise_LAeq;noise_LA_min;noise_LA_max;noise_LA01;noise_LA95
70454;Laerm;57915;47.174;14.680;2022-07-01T00:00:13;42.01;38.04;48.51;;
70454;Laerm;57915;47.174;14.680;2022-07-01T00:01:14;40.57;38.36;43.65;;
70454;Laerm;57915;47.174;14.680;2022-07-01T00:02:14;43.85;39.58;48.77;;
70454;Laerm;57915;47.174;14.680;2022-07-01T00:03:15;57.42;45.59;65.51;;
70454;Laerm;57915;47.174;14.680;2022-07-01T00:04:15;43.26;39.46;49.74;;
70454;Laerm;57915;47.174;14.680;2022-07-01T00:05:15;41.54;38.06;44.81;;
70454;Laerm;57915;47.174;14.680;2022-07-01T00:06:19;40.78;38.29;46.36;;
70454;Laerm;57915;47.174;14.680;2022-07-01T00:07:19;40.90;38.53;47.79;;
70454;Laerm;57915;47.174;14.680;2022-07-01T00:08:20;40.84;38.66;43.40;;
70454;Laerm;57915;47.174;14.680;2022-07-01T00:09:20;41.22;38.54;43.66;;
70454;Laerm;57915;47.174;14.680;2022-07-01T00:10:21;43.51;39.68;46.36;;
70454;Laerm;57915;47.174;14.680;2022-07-01T00:11:21;41.34;38.68;43.83;;
70454;Laerm;57915;47.174;14.680;2022-07-01T00:12:22;41.42;38.73;44.57;;
70454;Laerm;57915;47.174;14.680;2022-07-01T00:13:22;44.95;39.94;48.71;;
70454;Laerm;57915;47.174;14.680;2022-07-01T00:14:22;43.70;40.84;46.17;;
70454;Laerm;57915;47.174;14.680;2022-07-01T00:15:22;44.97;40.46;47.58;;
70454;Laerm;57915;47.174;14.680;2022-07-01T00:16:23;41.31;38.47;48.31;;
70454;Laerm;57915;47.174;14.680;2022-07-01T00:17:23;50.36;39.02;60.10;;
70454;Laerm;57915;47.174;14.680;2022-07-01T00:18:23;47.60;42.37;58.16;;
70454;Laerm;57915;47.174;14.680;2022-07-01T00:19:24;42.38;39.47;44.79;;
70454;Laerm;57915;47.174;14.680;2022-07-01T00:20:25;40.98;38.05;49.71;;
70454;Laerm;57915;47.174;14.680;2022-07-01T00:21:25;43.25;39.89;47.78;;
70454;Laerm;57915;47.174;14.680;2022-07-01T00:22:25;42.56;39.37;45.53;;
70454;Laerm;57915;47.174;14.680;2022-07-01T00:23:27;43.11;39.35;46.36;;
70454;Laerm;57915;47.174;14.680;2022-07-01T00:24:28;42.31;40.02;45.38;;
70454;Laerm;57915;47.174;14.680;2022-07-01T00:25:28;42.10;38.84;46.44;;
70454;Laerm;57915;47.174;14.680;2022-07-01T00:26:28;40.38;37.69;46.43;;
70454;Laerm;57915;47.174;14.680;2022-07-01T00:27:29;39.99;36.62;45.03;;
70454;Laerm;57915;47.174;14.680;2022-07-01T00:28:29;41.87;39.23;44.46;;
70454;Laerm;57915;47.174;14.680;2022-07-01T00:29:29;42.10;39.25;44.84;;
70454;Laerm;57915;47.174;14.680;2022-07-01T00:30:29;39.74;37.13;42.27;;
70454;Laerm;57915;47.174;14.680;2022-07-01T00:31:30;41.05;37.19;46.77;;
70454;Laerm;57915;47.174;14.680;2022-07-01T00:32:30;55.87;38.90;69.20;;
70454;Laerm;57915;47.174;14.680;2022-07-01T00:33:30;40.01;37.24;43.96;;
70454;Laerm;57915;47.174;14.680;2022-07-01T00:34:30;39.14;36.53;41.45;;
70454;Laerm;57915;47.174;14.680;2022-07-01T00:35:31;38.00;35.56;41.24;;
70454;Laerm;57915;47.174;14.680;2022-07-01T00:36:31;38.75;36.13;40.97;;
70454;Laerm;57915;47.174;14.680;2022-07-01T00:37:32;39.93;37.38;42.92;;
70454;Laerm;57915;47.174;14.680;2022-07-01T00:38:32;39.91;37.76;42.49;;
70454;Laerm;57915;47.174;14.680;2022-07-01T00:39:32;40.59;37.59;43.84;;
70454;Laerm;57915;47.174;14.680;2022-07-01T00:40:34;40.46;37.88;47.21;;
70454;Laerm;57915;47.174;14.680;2022-07-01T00:41:34;42.00;38.01;49.14;;
70454;Laerm;57915;47.174;14.680;2022-07-01T00:42:38;42.95;39.44;50.63;;
70454;Laerm;57915;47.174;14.680;2022-07-01T00:43:38;42.08;38.32;49.97;;
70454;Laerm;57915;47.174;14.680;2022-07-01T00:44:40;46.79;40.54;56.71;;
70454;Laerm;57915;47.174;14.680;2022-07-01T00:45:43;41.55;38.27;50.13;;
70454;Laerm;57915;47.174;14.680;2022-07-01T00:46:44;42.00;38.58;46.45;;
70454;Laerm;57915;47.174;14.680;2022-07-01T00:47:45;57.20;38.96;70.99;;
70454;Laerm;57915;47.174;14.680;2022-07-01T00:48:45;42.27;38.89;45.79;;
70454;Laerm;57915;47.174;14.680;2022-07-01T00:49:45;42.56;39.79;44.97;;
70454;Laerm;57915;47.174;14.680;2022-07-01T00:50:46;42.50;39.41;45.07;;
70454;Laerm;57915;47.174;14.680;2022-07-01T00:51:46;41.28;38.81;44.26;;
70454;Laerm;57915;47.174;14.680;2022-07-01T00:52:47;43.48;39.99;47.80;;
70454;Laerm;57915;47.174;14.680;2022-07-01T00:53:47;44.98;41.93;47.98;;
70454;Laerm;57915;47.174;14.680;2022-07-01T00:54:47;49.89;43.41;65.90;;
70454;Laerm;57915;47.174;14.680;2022-07-01T00:55:48;60.47;42.40;73.98;;
70454;Laerm;57915;47.174;14.680;2022-07-01T00:56:48;43.19;40.58;48.35;;
70454;Laerm;57915;47.174;14.680;2022-07-01T00:57:48;43.41;38.73;48.87;;
70454;Laerm;57915;47.174;14.680;2022-07-01T00:58:49;54.28;39.25;65.85;;
70454;Laerm;57915;47.174;14.680;2022-07-01T00:59:49;44.59;40.18;49.01;;
70454;Laerm;57915;47.174;14.680;2022-07-01T01:00:49;43.69;40.69;46.39;;
70454;Laerm;57915;47.174;14.680;2022-07-01T01:01:49;41.74;37.81;45.05;;
70454;Laerm;57915;47.174;14.680;2022-07-01T01:02:50;42.15;38.95;45.21;;
70454;Laerm;57915;47.174;14.680;2022-07-01T01:03:50;42.08;38.51;48.31;;
70454;Laerm;57915;47.174;14.680;2022-07-01T01:04:50;44.16;38.68;49.17;;
70454;Laerm;57915;47.174;14.680;2022-07-01T01:05:51;59.32;38.58;74.14;;
70454;Laerm;57915;47.174;14.680;2022-07-01T01:06:52;43.36;40.50;47.86;;
70454;Laerm;57915;47.174;14.680;2022-07-01T01:07:52;57.20;37.03;70.84;;
70454;Laerm;57915;47.174;14.680;2022-07-01T01:08:52;48.85;37.53;64.56;;
70454;Laerm;57915;47.174;14.680;2022-07-01T01:09:53;41.87;39.08;44.60;;
70454;Laerm;57915;47.174;14.680;2022-07-01T01:10:53;43.13;37.91;69.28;;
70454;Laerm;57915;47.174;14.680;2022-07-01T01:11:54;43.57;38.41;49.21;;
70454;Laerm;57915;47.174;14.680;2022-07-01T01:12:55;43.19;39.10;51.30;;
70454;Laerm;57915;47.174;14.680;2022-07-01T01:13:56;42.47;38.58;45.89;;
70454;Laerm;57915;47.174;14.680;2022-07-01T01:14:56;44.02;39.68;47.82;;
70454;Laerm;57915;47.174;14.680;2022-07-01T01:15:57;42.21;38.66;45.08;;
70454;Laerm;57915;47.174;14.680;2022-07-01T01:16:57;47.08;39.13;54.15;;
70454;Laerm;57915;47.174;14.680;2022-07-01T01:17:57;46.03;41.88;51.29;;
70454;Laerm;57915;47.174;14.680;2022-07-01T01:18:58;44.96;40.76;49.46;;
70454;Laerm;57915;47.174;14.680;2022-07-01T01:19:58;44.39;40.09;48.65;;
70454;Laerm;57915;47.174;14.680;2022-07-01T01:20:59;43.40;40.27;48.07;;
70454;Laerm;57915;47.174;14.680;2022-07-01T01:21:59;54.91;40.68;67.44;;
70454;Laerm;57915;47.174;14.680;2022-07-01T01:22:59;42.02;39.11;44.66;;
70454;Laerm;57915;47.174;14.680;2022-07-01T01:24:00;41.27;38.34;44.17;;
70454;Laerm;57915;47.174;14.680;2022-07-01T01:25:00;42.33;39.18;46.13;;
70454;Laerm;57915;47.174;14.680;2022-07-01T01:26:01;56.76;38.82;69.95;;
70454;Laerm;57915;47.174;14.680;2022-07-01T01:27:05;42.66;39.69;46.55;;
70454;Laerm;57915;47.174;14.680;2022-07-01T01:28:05;47.39;41.11;52.52;;
70454;Laerm;57915;47.174;14.680;2022-07-01T01:29:05;45.01;39.87;51.04;;
70454;Laerm;57915;47.174;14.680;2022-07-01T01:30:08;42.58;39.11;48.49;;
70454;Laerm;57915;47.174;14.680;2022-07-01T01:31:09;42.29;38.50;47.93;;
70454;Laerm;57915;47.174;14.680;2022-07-01T01:32:10;41.95;38.24;46.21;;
70454;Laerm;57915;47.174;14.680;2022-07-01T01:33:11;43.05;39.84;48.38;;
70454;Laerm;57915;47.174;14.680;2022-07-01T01:34:11;53.18;40.41;63.94;;
70454;Laerm;57915;47.174;14.680;2022-07-01T01:35:12;43.84;40.46;48.82;;
70454;Laerm;57915;47.174;14.680;2022-07-01T01:36:13;56.82;40.31;68.71;;
70454;Laerm;57915;47.174;14.680;2022-07-01T01:37:13;55.99;39.74;68.96;;
70454;Laerm;57915;47.174;14.680;2022-07-01T01:38:13;45.53;41.48;50.13;;
70454;Laerm;57915;47.174;14.680;2022-07-01T01:39:14;55.82;40.49;68.12;;
70454;Laerm;57915;47.174;14.680;2022-07-01T01:40:14;43.09;39.43;48.37;;
70454;Laerm;57915;47.174;14.680;2022-07-01T01:41:15;60.69;39.68;73.94;;
70454;Laerm;57915;47.174;14.680;2022-07-01T01:42:15;43.07;39.13;46.48;;
70454;Laerm;57915;47.174;14.680;2022-07-01T01:43:15;42.89;38.81;48.96;;
70454;Laerm;57915;47.174;14.680;2022-07-01T01:44:16;53.06;38.18;65.69;;
70454;Laerm;57915;47.174;14.680;2022-07-01T01:45:16;53.60;40.03;65.07;;
70454;Laerm;57915;47.174;14.680;2022-07-01T01:46:17;43.02;39.48;46.88;;
70454;Laerm;57915;47.174;14.680;2022-07-01T01:47:17;43.91;39.91;47.73;;
70454;Laerm;57915;47.174;14.680;2022-07-01T01:48:17;58.75;40.48;72.84;;
70454;Laerm;57915;47.174;14.680;2022-07-01T01:49:18;42.82;40.06;45.96;;
70454;Laerm;57915;47.174;14.680;2022-07-01T01:50:18;54.21;41.11;65.53;;
70454;Laerm;57915;47.174;14.680;2022-07-01T01:51:19;42.25;38.99;45.20;;
70454;Laerm;57915;47.174;14.680;2022-07-01T01:52:20;42.42;39.00;45.96;;
70454;Laerm;57915;47.174;14.680;2022-07-01T01:53:21;44.39;40.52;47.60;;
70454;Laerm;57915;47.174;14.680;2022-07-01T01:54:21;42.43;39.70;45.17;;
70454;Laerm;57915;47.174;14.680;2022-07-01T01:55:21;42.16;39.34;44.61;;
70454;Laerm;57915;47.174;14.680;2022-07-01T01:56:22;43.77;40.55;47.54;;
70454;Laerm;57915;47.174;14.680;2022-07-01T01:57:22;44.31;39.65;47.33;;
70454;Laerm;57915;47.174;14.680;2022-07-01T01:58:22;41.87;38.29;46.26;;
70454;Laerm;57915;47.174;14.680;2022-07-01T01:59:23;45.90;39.21;51.28;;
70454;Laerm;57915;47.174;14.680;2022-07-01T02:00:23;47.22;39.87;52.65;;
70454;Laerm;57915;47.174;14.680;2022-07-01T02:01:23;42.49;38.01;48.76;;
70454;Laerm;57915;47.174;14.680;2022-07-01T02:02:24;44.54;39.55;49.92;;
70454;Laerm;57915;47.174;14.680;2022-07-01T02:03:24;63.64;47.36;72.77;;
70454;Laerm;57915;47.174;14.680;2022-07-01T02:04:25;48.65;39.94;60.69;;
70454;Laerm;57915;47.174;14.680;2022-07-01T02:05:25;54.40;40.43;66.64;;
70454;Laerm;57915;47.174;14.680;2022-07-01T02:06:25;55.22;39.91;64.41;;
70454;Laerm;57915;47.174;14.680;2022-07-01T02:07:26;54.59;39.59;66.61;;
70454;Laerm;57915;47.174;14.680;2022-07-01T02:08:26;43.59;39.77;53.86;;
70454;Laerm;57915;47.174;14.680;2022-07-01T02:09:26;45.20;40.27;57.48;;
70454;Laerm;57915;47.174;14.680;2022-07-01T02:10:28;46.63;40.04;61.48;;
70454;Laerm;57915;47.174;14.680;2022-07-01T02:11:28;50.54;39.50;64.53;;
70454;Laerm;57915;47.174;14.680;2022-07-01T02:12:29;53.16;39.67;65.98;;
70454;Laerm;57915;47.174;14.680;2022-07-01T02:13:29;46.91;39.59;63.19;;
70454;Laerm;57915;47.174;14.680;2022-07-01T02:14:29;48.25;39.56;63.40;;
70454;Laerm;57915;47.174;14.680;2022-07-01T02:15:30;48.31;40.16;61.00;;
70454;Laerm;57915;47.174;14.680;2022-07-01T02:16:30;52.84;41.80;62.96;;
70454;Laerm;57915;47.174;14.680;2022-07-01T02:17:31;50.15;41.44;61.61;;
70454;Laerm;57915;47.174;14.680;2022-07-01T02:18:31;50.24;41.19;60.27;;
70454;Laerm;57915;47.174;14.680;2022-07-01T02:19:32;50.81;41.72;61.65;;
70454;Laerm;57915;47.174;14.680;2022-07-01T02:20:32;51.14;41.29;61.62;;
70454;Laerm;57915;47.174;14.680;2022-07-01T02:21:34;50.07;42.12;60.95;;
70454;Laerm;57915;47.174;14.680;2022-07-01T02:22:34;50.23;42.98;61.32;;
70454;Laerm;57915;47.174;14.680;2022-07-01T02:23:34;48.58;42.76;63.71;;
70454;Laerm;57915;47.174;14.680;2022-07-01T02:24:34;59.99;43.50;70.54;;
70454;Laerm;57915;47.174;14.680;2022-07-01T02:25:35;58.01;44.03;70.39;;
70454;Laerm;57915;47.174;14.680;2022-07-01T02:26:35;53.55;44.21;68.60;;
70454;Laerm;57915;47.174;14.680;2022-07-01T02:27:36;59.25;43.65;69.70;;
70454;Laerm;57915;47.174;14.680;2022-07-01T02:28:36;50.93;44.84;64.69;;
70454;Laerm;57915;47.174;14.680;2022-07-01T02:29:37;60.30;44.41;74.08;;
70454;Laerm;57915;47.174;14.680;2022-07-01T02:30:37;57.17;43.77;67.32;;
70454;Laerm;57915;47.174;14.680;2022-07-01T02:31:38;54.46;44.00;65.92;;
70454;Laerm;57915;47.174;14.680;2022-07-01T02:32:38;51.69;42.96;63.33;;
70454;Laerm;57915;47.174;14.680;2022-07-01T02:33:38;58.25;44.44;67.23;;
70454;Laerm;57915;47.174;14.680;2022-07-01T02:34:39;49.23;42.73;60.56;;
70454;Laerm;57915;47.174;14.680;2022-07-01T02:35:40;49.87;43.12;64.86;;
70454;Laerm;57915;47.174;14.680;2022-07-01T02:36:40;53.34;43.11;64.11;;
70454;Laerm;57915;47.174;14.680;2022-07-01T02:37:41;55.07;43.30;62.37;;
70454;Laerm;57915;47.174;14.680;2022-07-01T02:38:41;49.61;42.18;59.98;;
70454;Laerm;57915;47.174;14.680;2022-07-01T02:39:41;56.18;42.53;68.54;;
70454;Laerm;57915;47.174;14.680;2022-07-01T02:40:41;60.07;43.10;68.97;;
70454;Laerm;57915;47.174;14.680;2022-07-01T02:41:42;46.99;42.19;59.23;;
70454;Laerm;57915;47.174;14.680;2022-07-01T02:43:01;47.04;42.55;61.12;;
70454;Laerm;57915;47.174;14.680;2022-07-01T02:44:01;58.12;42.40;69.95;;
70454;Laerm;57915;47.174;14.680;2022-07-01T02:45:05;60.24;43.45;73.27;;
70454;Laerm;57915;47.174;14.680;2022-07-01T02:46:06;49.61;43.56;62.75;;
70454;Laerm;57915;47.174;14.680;2022-07-01T02:47:06;51.13;41.33;65.89;;
70454;Laerm;57915;47.174;14.680;2022-07-01T02:48:07;52.09;42.04;63.84;;
70454;Laerm;57915;47.174;14.680;2022-07-01T02:49:07;51.96;41.55;64.44;;
70454;Laerm;57915;47.174;14.680;2022-07-01T02:50:08;55.77;43.31;65.95;;
70454;Laerm;57915;47.174;14.680;2022-07-01T02:51:09;58.56;43.70;69.57;;
70454;Laerm;57915;47.174;14.680;2022-07-01T02:52:09;58.44;43.35;71.86;;
70454;Laerm;57915;47.174;14.680;2022-07-01T02:53:10;55.40;42.65;67.29;;
70454;Laerm;57915;47.174;14.680;2022-07-01T02:54:10;46.25;41.56;57.85;;
70454;Laerm;57915;47.174;14.680;2022-07-01T02:55:11;46.22;41.40;52.21;;
70454;Laerm;57915;47.174;14.680;2022-07-01T02:56:12;46.03;42.26;57.91;;
70454;Laerm;57915;47.174;14.680;2022-07-01T02:57:12;45.29;42.35;52.70;;
70454;Laerm;57915;47.174;14.680;2022-07-01T02:58:12;45.32;41.40;52.39;;
70454;Laerm;57915;47.174;14.680;2022-07-01T02:59:13;45.35;41.50;51.60;;
70454;Laerm;57915;47.174;14.680;2022-07-01T03:00:13;45.07;41.44;56.85;;
70454;Laerm;57915;47.174;14.680;2022-07-01T03:01:13;46.43;42.17;57.84;;
70454;Laerm;57915;47.174;14.680;2022-07-01T03:02:14;56.99;42.47;70.56;;
70454;Laerm;57915;47.174;14.680;2022-07-01T03:03:14;51.33;44.31;65.20;;
70454;Laerm;57915;47.174;14.680;2022-07-01T03:04:14;47.86;43.22;60.46;;
70454;Laerm;57915;47.174;14.680;2022-07-01T03:05:15;48.40;43.33;55.61;;
70454;Laerm;57915;47.174;14.680;2022-07-01T03:06:15;47.35;42.67;54.48;;
70454;Laerm;57915;47.174;14.680;2022-07-01T03:07:16;54.54;43.93;66.45;;
70454;Laerm;57915;47.174;14.680;2022-07-01T03:08:16;57.14;44.80;67.26;;
70454;Laerm;57915;47.174;14.680;2022-07-01T03:09:17;47.39;41.93;58.03;;
70454;Laerm;57915;47.174;14.680;2022-07-01T03:10:17;53.63;43.93;64.38;;
70454;Laerm;57915;47.174;14.680;2022-07-01T03:11:18;57.14;43.28;71.66;;
70454;Laerm;57915;47.174;14.680;2022-07-01T03:12:18;49.06;42.91;60.06;;
70454;Laerm;57915;47.174;14.680;2022-07-01T03:13:24;58.78;48.88;71.22;;
70454;Laerm;57915;47.174;14.680;2022-07-01T03:14:25;60.16;47.02;69.23;;
70454;Laerm;57915;47.174;14.680;2022-07-01T03:15:25;48.48;43.91;62.26;;
70454;Laerm;57915;47.174;14.680;2022-07-01T03:16:25;56.18;43.45;67.22;;
70454;Laerm;57915;47.174;14.680;2022-07-01T03:17:27;59.47;42.67;70.72;;
70454;Laerm;57915;47.174;14.680;2022-07-01T03:18:27;57.17;42.92;70.25;;
70454;Laerm;57915;47.174;14.680;2022-07-01T03:19:27;58.27;42.87;68.43;;
70454;Laerm;57915;47.174;14.680;2022-07-01T03:20:28;45.56;41.96;60.75;;
70454;Laerm;57915;47.174;14.680;2022-07-01T03:21:28;60.29;42.64;68.85;;
70454;Laerm;57915;47.174;14.680;2022-07-01T03:22:29;57.69;43.41;67.44;;
70454;Laerm;57915;47.174;14.680;2022-07-01T03:23:30;51.13;42.56;64.05;;
70454;Laerm;57915;47.174;14.680;2022-07-01T03:24:30;63.42;43.37;75.02;;
70454;Laerm;57915;47.174;14.680;2022-07-01T03:25:30;62.00;48.29;69.68;;
70454;Laerm;57915;47.174;14.680;2022-07-01T03:26:30;62.20;49.05;74.24;;
70454;Laerm;57915;47.174;14.680;2022-07-01T03:27:31;56.26;43.47;67.07;;
70454;Laerm;57915;47.174;14.680;2022-07-01T03:28:31;62.09;43.56;77.76;;
70454;Laerm;57915;47.174;14.680;2022-07-01T03:29:34;54.63;42.99;67.45;;
70454;Laerm;57915;47.174;14.680;2022-07-01T03:30:34;57.98;43.18;68.92;;
70454;Laerm;57915;47.174;14.680;2022-07-01T03:31:34;54.58;44.53;65.35;;
70454;Laerm;57915;47.174;14.680;2022-07-01T03:32:35;62.39;43.85;76.35;;
70454;Laerm;57915;47.174;14.680;2022-07-01T03:33:35;48.81;42.97;62.53;;
70454;Laerm;57915;47.174;14.680;2022-07-01T03:34:36;59.23;44.97;67.72;;
70454;Laerm;57915;47.174;14.680;2022-07-01T03:35:37;57.36;45.59;68.10;;
70454;Laerm;57915;47.174;14.680;2022-07-01T03:36:39;56.95;44.54;67.15;;
70454;Laerm;57915;47.174;14.680;2022-07-01T03:37:39;61.32;44.95;72.32;;
70454;Laerm;57915;47.174;14.680;2022-07-01T03:38:40;63.77;44.64;75.75;;
70454;Laerm;57915;47.174;14.680;2022-07-01T03:39:40;61.59;44.73;72.56;;
70454;Laerm;57915;47.174;14.680;2022-07-01T03:40:41;48.53;42.35;57.85;;
70454;Laerm;57915;47.174;14.680;2022-07-01T03:41:41;59.67;43.81;69.38;;
70454;Laerm;57915;47.174;14.680;2022-07-01T03:42:41;57.13;43.40;68.14;;
70454;Laerm;57915;47.174;14.680;2022-07-01T03:43:41;64.25;45.17;73.35;;
70454;Laerm;57915;47.174;14.680;2022-07-01T03:44:42;46.52;40.91;54.83;;
70454;Laerm;57915;47.174;14.680;2022-07-01T03:45:44;61.79;42.25;72.90;;
70454;Laerm;57915;47.174;14.680;2022-07-01T03:46:44;58.42;42.84;71.72;;
70454;Laerm;57915;47.174;14.680;2022-07-01T03:47:45;62.12;44.38;70.63;;
70454;Laerm;57915;47.174;14.680;2022-07-01T03:48:45;56.32;41.33;72.98;;
70454;Laerm;57915;47.174;14.680;2022-07-01T03:49:45;53.99;42.10;65.16;;
70454;Laerm;57915;47.174;14.680;2022-07-01T03:50:46;62.69;44.15;72.89;;
70454;Laerm;57915;47.174;14.680;2022-07-01T03:51:46;57.50;42.91;70.42;;
70454;Laerm;57915;47.174;14.680;2022-07-01T03:52:47;58.02;43.17;69.45;;
70454;Laerm;57915;47.174;14.680;2022-07-01T03:53:47;61.68;46.48;69.61;;
70454;Laerm;57915;47.174;14.680;2022-07-01T03:55:06;47.76;41.96;59.95;;
70454;Laerm;57915;47.174;14.680;2022-07-01T03:56:06;60.35;42.23;72.21;;
70454;Laerm;57915;47.174;14.680;2022-07-01T03:57:07;54.55;41.04;66.21;;
70454;Laerm;57915;47.174;14.680;2022-07-01T03:58:08;45.18;40.82;53.48;;
70454;Laerm;57915;47.174;14.680;2022-07-01T03:59:08;47.36;42.51;57.68;;
70454;Laerm;57915;47.174;14.680;2022-07-01T04:00:09;48.99;43.21;55.73;;
70454;Laerm;57915;47.174;14.680;2022-07-01T04:01:09;58.56;42.86;71.65;;
70454;Laerm;57915;47.174;14.680;2022-07-01T04:02:10;48.54;43.77;57.68;;
70454;Laerm;57915;47.174;14.680;2022-07-01T04:03:10;60.75;43.92;73.27;;
70454;Laerm;57915;47.174;14.680;2022-07-01T04:04:10;57.53;42.89;69.40;;
70454;Laerm;57915;47.174;14.680;2022-07-01T04:05:10;49.05;43.76;59.75;;
70454;Laerm;57915;47.174;14.680;2022-07-01T04:06:11;59.46;45.46;70.29;;
70454;Laerm;57915;47.174;14.680;2022-07-01T04:07:11;49.32;43.29;61.68;;
70454;Laerm;57915;47.174;14.680;2022-07-01T04:08:11;48.85;43.23;73.45;;
70454;Laerm;57915;47.174;14.680;2022-07-01T04:09:12;53.68;43.33;65.09;;
70454;Laerm;57915;47.174;14.680;2022-07-01T04:10:14;62.00;47.95;70.54;;
70454;Laerm;57915;47.174;14.680;2022-07-01T04:11:14;56.80;42.76;68.64;;
70454;Laerm;57915;47.174;14.680;2022-07-01T04:12:15;54.80;43.29;66.62;;
70454;Laerm;57915;47.174;14.680;2022-07-01T04:13:15;48.04;41.63;57.12;;
70454;Laerm;57915;47.174;14.680;2022-07-01T04:14:15;49.57;43.94;58.70;;
70454;Laerm;57915;47.174;14.680;2022-07-01T04:15:16;61.93;43.16;70.01;;
70454;Laerm;57915;47.174;14.680;2022-07-01T04:16:17;55.68;43.25;67.60;;
70454;Laerm;57915;47.174;14.680;2022-07-01T04:17:18;56.72;43.65;65.86;;
70454;Laerm;57915;47.174;14.680;2022-07-01T04:18:18;58.32;46.23;68.38;;
70454;Laerm;57915;47.174;14.680;2022-07-01T04:19:19;61.30;43.71;71.67;;
70454;Laerm;57915;47.174;14.680;2022-07-01T04:20:19;59.28;42.93;69.07;;
70454;Laerm;57915;47.174;14.680;2022-07-01T04:21:19;58.84;45.88;69.27;;
70454;Laerm;57915;47.174;14.680;2022-07-01T04:22:38;61.51;43.04;72.95;;
70454;Laerm;57915;47.174;14.680;2022-07-01T04:23:39;62.18;43.33;71.51;;
70454;Laerm;57915;47.174;14.680;2022-07-01T04:24:39;57.90;41.92;70.25;;
70454;Laerm;57915;47.174;14.680;2022-07-01T04:25:39;55.18;41.87;66.31;;
70454;Laerm;57915;47.174;14.680;2022-07-01T04:26:40;56.61;42.18;66.88;;
70454;Laerm;57915;47.174;14.680;2022-07-01T04:27:40;60.11;45.02;70.04;;
70454;Laerm;57915;47.174;14.680;2022-07-01T04:28:41;59.66;45.58;69.89;;
70454;Laerm;57915;47.174;14.680;2022-07-01T04:29:41;59.67;44.67;66.99;;
70454;Laerm;57915;47.174;14.680;2022-07-01T04:30:41;59.36;46.33;69.60;;
70454;Laerm;57915;47.174;14.680;2022-07-01T04:31:41;56.84;45.91;67.99;;
70454;Laerm;57915;47.174;14.680;2022-07-01T04:32:42;55.62;43.95;65.46;;
70454;Laerm;57915;47.174;14.680;2022-07-01T04:33:42;60.67;42.88;70.59;;
70454;Laerm;57915;47.174;14.680;2022-07-01T04:34:43;60.62;44.21;70.54;;
70454;Laerm;57915;47.174;14.680;2022-07-01T04:35:43;54.33;45.02;64.34;;
70454;Laerm;57915;47.174;14.680;2022-07-01T04:36:43;62.77;45.50;72.98;;
70454;Laerm;57915;47.174;14.680;2022-07-01T04:37:43;59.54;43.60;69.95;;
70454;Laerm;57915;47.174;14.680;2022-07-01T04:38:44;56.96;43.96;65.72;;
70454;Laerm;57915;47.174;14.680;2022-07-01T04:39:44;55.98;43.42;66.19;;
70454;Laerm;57915;47.174;14.680;2022-07-01T04:40:45;60.90;45.15;71.24;;
70454;Laerm;57915;47.174;14.680;2022-07-01T04:42:05;60.95;42.22;73.55;;
70454;Laerm;57915;47.174;14.680;2022-07-01T04:43:05;60.68;46.01;72.03;;
70454;Laerm;57915;47.174;14.680;2022-07-01T04:44:05;50.16;43.31;62.17;;
70454;Laerm;57915;47.174;14.680;2022-07-01T04:45:06;64.40;45.30;74.25;;
70454;Laerm;57915;47.174;14.680;2022-07-01T04:46:07;58.62;41.79;73.73;;
70454;Laerm;57915;47.174;14.680;2022-07-01T04:47:07;56.36;42.03;66.36;;
70454;Laerm;57915;47.174;14.680;2022-07-01T04:48:08;55.86;43.89;66.60;;
70454;Laerm;57915;47.174;14.680;2022-07-01T04:49:08;56.84;44.06;65.56;;
70454;Laerm;57915;47.174;14.680;2022-07-01T04:50:08;55.35;43.51;66.81;;
70454;Laerm;57915;47.174;14.680;2022-07-01T04:51:09;48.27;42.36;56.64;;
70454;Laerm;57915;47.174;14.680;2022-07-01T04:52:09;56.54;43.82;68.82;;
70454;Laerm;57915;47.174;14.680;2022-07-01T04:53:09;56.42;43.62;67.61;;
70454;Laerm;57915;47.174;14.680;2022-07-01T04:54:10;62.67;43.72;73.15;;
70454;Laerm;57915;47.174;14.680;2022-07-01T04:55:10;60.45;45.62;69.51;;
70454;Laerm;57915;47.174;14.680;2022-07-01T04:56:10;61.96;41.60;74.40;;
70454;Laerm;57915;47.174;14.680;2022-07-01T04:57:11;56.31;42.11;67.47;;
70454;Laerm;57915;47.174;14.680;2022-07-01T04:58:12;60.53;44.58;72.75;;
70454;Laerm;57915;47.174;14.680;2022-07-01T04:59:13;54.30;43.29;64.53;;
70454;Laerm;57915;47.174;14.680;2022-07-01T05:00:13;60.84;43.67;71.48;;
70454;Laerm;57915;47.174;14.680;2022-07-01T05:01:14;54.80;43.01;64.75;;
70454;Laerm;57915;47.174;14.680;2022-07-01T05:02:14;59.65;45.40;69.17;;
70454;Laerm;57915;47.174;14.680;2022-07-01T05:03:14;61.12;43.83;70.57;;
70454;Laerm;57915;47.174;14.680;2022-07-01T05:04:15;57.62;42.60;70.26;;
70454;Laerm;57915;47.174;14.680;2022-07-01T05:05:15;58.89;44.13;70.57;;
70454;Laerm;57915;47.174;14.680;2022-07-01T05:06:16;64.25;45.09;72.44;;
70454;Laerm;57915;47.174;14.680;2022-07-01T05:07:16;60.01;44.84;68.72;;
70454;Laerm;57915;47.174;14.680;2022-07-01T05:08:28;63.25;44.47;71.00;;
70454;Laerm;57915;47.174;14.680;2022-07-01T05:09:29;59.84;43.33;69.55;;
70454;Laerm;57915;47.174;14.680;2022-07-01T05:10:29;63.58;49.60;70.46;;
70454;Laerm;57915;47.174;14.680;2022-07-01T05:11:29;62.13;47.15;71.82;;
70454;Laerm;57915;47.174;14.680;2022-07-01T05:12:29;62.84;47.39;69.55;;
70454;Laerm;57915;47.174;14.680;2022-07-01T05:13:30;63.94;49.09;73.34;;
70454;Laerm;57915;47.174;14.680;2022-07-01T05:14:30;56.86;44.30;68.04;;
70454;Laerm;57915;47.174;14.680;2022-07-01T05:15:30;66.13;48.05;77.01;;
70454;Laerm;57915;47.174;14.680;2022-07-01T05:16:30;63.54;45.72;82.52;;
70454;Laerm;57915;47.174;14.680;2022-07-01T05:17:31;63.11;47.66;72.84;;
70454;Laerm;57915;47.174;14.680;2022-07-01T05:18:49;59.89;44.36;70.61;;
70454;Laerm;57915;47.174;14.680;2022-07-01T05:20:08;64.96;49.44;73.32;;
70454;Laerm;57915;47.174;14.680;2022-07-01T05:21:27;61.32;43.55;74.01;;
70454;Laerm;57915;47.174;14.680;2022-07-01T05:22:46;65.77;51.00;74.28;;
70454;Laerm;57915;47.174;14.680;2022-07-01T05:23:46;62.05;44.70;70.11;;
70454;Laerm;57915;47.174;14.680;2022-07-01T05:24:47;65.51;46.21;74.19;;
70454;Laerm;57915;47.174;14.680;2022-07-01T05:25:47;59.00;42.72;68.22;;
70454;Laerm;57915;47.174;14.680;2022-07-01T05:26:47;61.39;43.18;69.13;;
70454;Laerm;57915;47.174;14.680;2022-07-01T05:27:48;64.11;45.46;72.48;;
70454;Laerm;57915;47.174;14.680;2022-07-01T05:28:48;63.33;45.93;72.64;;
70454;Laerm;57915;47.174;14.680;2022-07-01T05:29:48;63.87;51.02;72.06;;
70454;Laerm;57915;47.174;14.680;2022-07-01T05:30:49;63.94;49.24;71.38;;
70454;Laerm;57915;47.174;14.680;2022-07-01T05:31:49;62.31;55.17;68.00;;
70454;Laerm;57915;47.174;14.680;2022-07-01T05:32:49;63.15;49.30;69.81;;
70454;Laerm;57915;47.174;14.680;2022-07-01T05:33:50;65.52;50.21;72.40;;
70454;Laerm;57915;47.174;14.680;2022-07-01T05:34:50;65.13;49.09;78.89;;
70454;Laerm;57915;47.174;14.680;2022-07-01T05:35:50;62.77;50.34;70.41;;